Time;durP1;ratioP1;P1;durP2;ratioP2;P2;SDS_P1;SDS_P2;PMS_P1;PMS_P2;Temp;Humidity;BMP_temperature;BMP_pressure;BME280_temperature;BME280_humidity;BME280_pressure;Samples;Min_cycle;Max_cycle;Signal;HPM_P1;HPM_P2
2022/09/29 00:02:07;;;;;;;;;;;15.50;99.90;;;;;;4196896;28;19935;-59
2022/09/29 00:04:27;;;;;;;;;;;15.50;99.90;;;;;;4196696;28;19931;-58
2022/09/29 00:06:48;;;;;;;;;;;15.60;99.90;;;;;;4196741;28;19939;-59
2022/09/29 00:09:08;;;;;;;;;;;15.80;99.90;;;;;;4196621;28;20307;-59
2022/09/29 00:11:28;;;;;;;;;;;15.80;99.90;;;;;;4196359;28;19974;-59
2022/09/29 00:13:48;;;;;;;;;;;15.70;99.90;;;;;;4196446;28;20326;-58
2022/09/29 00:16:09;;;;;;;;;;;15.50;99.90;;;;;;4196210;28;19932;-59
2022/09/29 00:18:30;;;;;;;;;;;15.60;99.90;;;;;;4196179;28;20292;-59
2022/09/29 00:21:04;;;;;;;;;;;15.70;99.90;;;;;;4196722;28;19936;-59
2022/09/29 00:23:25;;;;;;;;;;;15.60;99.90;;;;;;4212611;28;20291;-59
2022/09/29 00:25:45;;;;;;;;;;;15.70;99.90;;;;;;4212643;28;19935;-58
2022/09/29 00:28:06;;;;;;;;;;;15.80;99.90;;;;;;4213330;28;19930;-58
2022/09/29 00:30:26;;;;;;;;;;;15.80;99.90;;;;;;4213274;28;19977;-58
2022/09/29 00:32:47;;;;;;;;;;;15.90;99.90;;;;;;4212875;28;19931;-58
2022/09/29 00:35:09;;;;;;;;;;;16.00;99.90;;;;;;4213085;28;19935;-59
2022/09/29 00:37:29;;;;;;;;;;;16.20;99.90;;;;;;4212777;28;19939;-58
2022/09/29 00:39:50;;;;;;;;;;;16.10;99.90;;;;;;4212479;28;20394;-57
2022/09/29 00:42:11;;;;;;;;;;;16.00;99.90;;;;;;4213076;28;19981;-58
2022/09/29 00:44:49;;;;;;;;;;;16.00;99.90;;;;;;4213026;28;20333;-59
2022/09/29 00:47:13;;;;;;;;;;;15.90;99.90;;;;;;4213180;28;19977;-58
2022/09/29 00:49:33;;;;;;;;;;;15.70;99.90;;;;;;4197010;28;20306;-58
2022/09/29 00:51:57;;;;;;;;;;;15.80;99.90;;;;;;4195904;28;19958;-59
2022/09/29 00:54:18;;;;;;;;;;;15.90;99.90;;;;;;4195997;28;19943;-59
2022/09/29 00:56:40;;;;;;;;;;;15.90;99.90;;;;;;4194959;28;19935;-58
2022/09/29 00:59:03;;;;;;;;;;;15.80;99.90;;;;;;4194940;28;20300;-58
2022/09/29 01:01:25;;;;;;;;;;;15.80;99.90;;;;;;4196163;28;19974;-58
2022/09/29 01:03:46;;;;;;;;;;;15.80;99.90;;;;;;4195935;28;19932;-58
2022/09/29 01:06:13;;;;;;;;;;;15.70;99.90;;;;;;4195662;28;19935;-59
2022/09/29 01:08:46;;;;;;;;;;;15.70;99.90;;;;;;4196032;28;20002;-57
2022/09/29 01:11:08;;;;;;;;;;;15.70;99.90;;;;;;4196149;28;19978;-58
2022/09/29 01:13:30;;;;;;;;;;;15.90;99.90;;;;;;4195964;28;19935;-58
2022/09/29 01:15:50;;;;;;;;;;;16.00;99.90;;;;;;4195837;28;20419;-58
2022/09/29 01:18:11;;;;;;;;;;;15.80;99.90;;;;;;4199902;28;20236;-59
2022/09/29 01:20:33;;;;;;;;;;;15.70;99.90;;;;;;4212514;28;19931;-58
2022/09/29 01:23:12;;;;;;;;;;;15.60;99.90;;;;;;4212384;28;19935;-58
2022/09/29 01:25:39;;;;;;;;;;;15.80;99.90;;;;;;4212126;28;20023;-58
2022/09/29 01:28:08;;;;;;;;;;;15.90;99.90;;;;;;4212789;28;19931;-59
2022/09/29 01:30:41;;;;;;;;;;;15.80;99.90;;;;;;4214078;28;19935;-58
2022/09/29 01:33:10;;;;;;;;;;;15.70;99.90;;;;;;4216039;28;19930;-58
2022/09/29 01:35:42;;;;;;;;;;;15.70;99.90;;;;;;4215828;28;19935;-58
2022/09/29 01:38:21;;;;;;;;;;;15.60;99.90;;;;;;4215879;28;19981;-58
2022/09/29 01:40:48;;;;;;;;;;;15.50;99.90;;;;;;4215532;28;19935;-59
2022/09/29 01:43:16;;;;;;;;;;;15.30;99.90;;;;;;4216055;28;19931;-59
2022/09/29 01:45:39;;;;;;;;;;;15.20;99.90;;;;;;4215442;28;19935;-59
2022/09/29 01:48:05;;;;;;;;;;;15.30;99.90;;;;;;4213160;28;19931;-58
2022/09/29 01:50:39;;;;;;;;;;;15.30;99.90;;;;;;4198696;28;19934;-58
2022/09/29 01:53:02;;;;;;;;;;;15.20;99.90;;;;;;4198477;28;19935;-58
2022/09/29 01:55:25;;;;;;;;;;;15.30;99.90;;;;;;4198855;28;19969;-59
2022/09/29 01:57:59;;;;;;;;;;;15.30;99.90;;;;;;4198640;28;19939;-59
2022/09/29 02:00:20;;;;;;;;;;;15.30;99.90;;;;;;4197392;28;19943;-59
2022/09/29 02:02:43;;;;;;;;;;;15.40;99.90;;;;;;4198413;28;19982;-58
2022/09/29 02:05:07;;;;;;;;;;;15.40;99.90;;;;;;4198598;28;20303;-58
2022/09/29 02:07:34;;;;;;;;;;;15.40;99.90;;;;;;4198354;28;20016;-59
2022/09/29 02:09:58;;;;;;;;;;;15.80;99.90;;;;;;4198909;28;20031;-58
2022/09/29 02:12:22;;;;;;;;;;;16.20;99.90;;;;;;4215491;28;20295;-58
2022/09/29 02:14:45;;;;;;;;;;;15.90;99.90;;;;;;4208742;28;19978;-58
2022/09/29 02:17:08;;;;;;;;;;;15.60;99.90;;;;;;4198617;28;20011;-59
2022/09/29 02:19:30;;;;;;;;;;;15.60;99.90;;;;;;4213212;28;19985;-58
2022/09/29 02:21:53;;;;;;;;;;;15.70;99.90;;;;;;4214818;28;20444;-58
2022/09/29 02:24:14;;;;;;;;;;;16.00;99.90;;;;;;4214933;28;19931;-58
2022/09/29 02:26:34;;;;;;;;;;;16.00;99.90;;;;;;4214917;28;19989;-58
2022/09/29 02:28:55;;;;;;;;;;;16.00;99.90;;;;;;4215151;28;20410;-58
2022/09/29 02:31:15;;;;;;;;;;;15.90;99.90;;;;;;4215123;28;20005;-58
2022/09/29 02:33:36;;;;;;;;;;;15.90;99.90;;;;;;4214901;28;20018;-57
2022/09/29 02:36:02;;;;;;;;;;;15.80;99.90;;;;;;4214681;28;19934;-57
2022/09/29 02:38:37;;;;;;;;;;;16.00;99.90;;;;;;4214935;28;19931;-58
2022/09/29 02:41:05;;;;;;;;;;;16.20;99.90;;;;;;4214684;28;19935;-59
2022/09/29 02:43:28;;;;;;;;;;;16.30;99.90;;;;;;4214910;28;19935;-57
2022/09/29 02:45:55;;;;;;;;;;;16.30;99.90;;;;;;4214552;28;20298;-58
2022/09/29 02:48:26;;;;;;;;;;;16.20;99.90;;;;;;4210013;28;19935;-59
2022/09/29 02:51:06;;;;;;;;;;;16.20;99.90;;;;;;4197759;28;19931;-59
2022/09/29 02:53:40;;;;;;;;;;;16.10;99.90;;;;;;4197987;28;19935;-59
2022/09/29 02:56:10;;;;;;;;;;;16.00;99.90;;;;;;4197982;28;19935;-58
2022/09/29 02:59:00;;;;;;;;;;;16.10;99.90;;;;;;4198216;28;19978;-58
2022/09/29 03:01:21;;;;;;;;;;;16.30;99.90;;;;;;4162536;28;19936;-59
2022/09/29 03:03:41;;;;;;;;;;;16.20;99.90;;;;;;4162631;28;20316;-58
2022/09/29 03:06:02;;;;;;;;;;;16.30;99.90;;;;;;4162492;28;19979;-58
2022/09/29 03:08:22;;;;;;;;;;;16.10;99.90;;;;;;4163016;28;19936;-59
2022/09/29 03:10:42;;;;;;;;;;;16.00;99.90;;;;;;4162518;28;19931;-58
2022/09/29 03:13:03;;;;;;;;;;;16.10;99.90;;;;;;4162625;28;19952;-58
2022/09/29 03:15:23;;;;;;;;;;;16.10;99.90;;;;;;4162480;28;20015;-58
2022/09/29 03:17:44;;;;;;;;;;;16.20;99.90;;;;;;4162447;28;20477;-58
2022/09/29 03:20:04;;;;;;;;;;;16.20;99.90;;;;;;4162435;28;19932;-58
2022/09/29 03:22:25;;;;;;;;;;;16.10;99.90;;;;;;4162487;28;20415;-58
2022/09/29 03:24:45;;;;;;;;;;;16.00;99.90;;;;;;4162489;28;19963;-58
2022/09/29 03:27:06;;;;;;;;;;;15.90;99.90;;;;;;4162098;28;20032;-58
2022/09/29 03:29:26;;;;;;;;;;;15.90;99.90;;;;;;4162487;28;19987;-57
2022/09/29 03:31:47;;;;;;;;;;;15.90;99.90;;;;;;4162171;28;19936;-57
2022/09/29 03:34:07;;;;;;;;;;;16.00;99.90;;;;;;4162123;28;20351;-58
2022/09/29 03:36:29;;;;;;;;;;;15.90;99.90;;;;;;4161905;28;20442;-58
2022/09/29 03:38:49;;;;;;;;;;;15.90;99.90;;;;;;4197469;28;20027;-59
2022/09/29 03:41:10;;;;;;;;;;;15.90;99.90;;;;;;4196958;28;20410;-58
2022/09/29 03:43:30;;;;;;;;;;;15.80;99.90;;;;;;4197309;28;19936;-58
2022/09/29 03:45:51;;;;;;;;;;;15.90;99.90;;;;;;4182093;28;20391;-58
2022/09/29 03:48:11;;;;;;;;;;;15.90;99.90;;;;;;4201015;28;20015;-57
2022/09/29 03:50:32;;;;;;;;;;;15.80;99.90;;;;;;4213532;28;19947;-58
2022/09/29 03:52:52;;;;;;;;;;;15.70;99.90;;;;;;4213087;28;20341;-58
2022/09/29 03:55:12;;;;;;;;;;;15.70;99.90;;;;;;4213613;28;20402;-57
2022/09/29 03:57:33;;;;;;;;;;;15.50;99.90;;;;;;4213249;28;20043;-57
2022/09/29 03:59:53;;;;;;;;;;;15.60;99.90;;;;;;4213564;28;20279;-59
2022/09/29 04:02:13;;;;;;;;;;;15.70;99.90;;;;;;4213504;28;19930;-58
2022/09/29 04:04:33;;;;;;;;;;;15.60;99.90;;;;;;4213571;28;20070;-59
2022/09/29 04:06:54;;;;;;;;;;;15.70;99.90;;;;;;4213240;28;20374;-58
2022/09/29 04:09:14;;;;;;;;;;;15.70;99.90;;;;;;4213157;28;20426;-58
2022/09/29 04:11:35;;;;;;;;;;;15.70;99.90;;;;;;4213456;28;19931;-59
2022/09/29 04:13:55;;;;;;;;;;;15.70;99.90;;;;;;4213427;28;20023;-58
2022/09/29 04:16:15;;;;;;;;;;;15.70;99.90;;;;;;4211556;28;19970;-59
2022/09/29 04:18:36;;;;;;;;;;;15.80;99.90;;;;;;4213126;28;19977;-58
2022/09/29 04:20:59;;;;;;;;;;;15.80;99.90;;;;;;4213546;28;20299;-58
2022/09/29 04:23:20;;;;;;;;;;;15.80;99.90;;;;;;4213133;28;20295;-58
2022/09/29 04:25:40;;;;;;;;;;;15.80;99.90;;;;;;4212829;28;19930;-58
2022/09/29 04:28:01;;;;;;;;;;;15.70;99.90;;;;;;4213401;28;19977;-58
2022/09/29 04:30:21;;;;;;;;;;;15.70;99.90;;;;;;4213004;28;19934;-58
2022/09/29 04:32:42;;;;;;;;;;;15.70;99.90;;;;;;4213639;28;19969;-59
2022/09/29 04:35:02;;;;;;;;;;;16.10;99.90;;;;;;4213186;28;19931;-58
2022/09/29 04:37:23;;;;;;;;;;;16.00;99.90;;;;;;4212726;28;19935;-58
2022/09/29 04:39:43;;;;;;;;;;;16.00;99.90;;;;;;4212791;28;20299;-57
2022/09/29 04:42:04;;;;;;;;;;;16.10;99.90;;;;;;4212873;28;19931;-58
2022/09/29 04:44:24;;;;;;;;;;;16.00;99.90;;;;;;4212949;28;19938;-58
2022/09/29 04:46:45;;;;;;;;;;;15.80;99.90;;;;;;4212877;28;19939;-58
2022/09/29 04:49:05;;;;;;;;;;;15.80;99.90;;;;;;4201415;28;20300;-59
2022/09/29 04:51:25;;;;;;;;;;;15.70;99.90;;;;;;4196032;28;19998;-59
2022/09/29 04:53:45;;;;;;;;;;;15.60;99.90;;;;;;4195988;28;20406;-58
2022/09/29 04:56:07;;;;;;;;;;;15.50;99.90;;;;;;4196318;28;19966;-59
2022/09/29 04:58:27;;;;;;;;;;;15.40;99.90;;;;;;4195791;28;19937;-59
2022/09/29 05:00:47;;;;;;;;;;;15.30;99.90;;;;;;4180795;28;19995;-58
2022/09/29 05:03:07;;;;;;;;;;;15.30;99.90;;;;;;4199081;28;19973;-57
2022/09/29 05:05:28;;;;;;;;;;;15.40;99.90;;;;;;4211723;28;19935;-58
2022/09/29 05:07:48;;;;;;;;;;;15.40;99.90;;;;;;4211845;28;19935;-58
2022/09/29 05:10:09;;;;;;;;;;;15.40;99.90;;;;;;4212617;28;19973;-57
2022/09/29 05:12:29;;;;;;;;;;;15.40;99.90;;;;;;4212260;28;20457;-57
2022/09/29 05:14:49;;;;;;;;;;;15.50;99.90;;;;;;4212435;28;20371;-59
2022/09/29 05:17:10;;;;;;;;;;;15.40;99.90;;;;;;4212325;28;19935;-59
2022/09/29 05:19:31;;;;;;;;;;;15.40;99.90;;;;;;4212764;28;19935;-57
2022/09/29 05:21:51;;;;;;;;;;;15.50;99.90;;;;;;4211439;28;19969;-57
2022/09/29 05:24:11;;;;;;;;;;;15.50;99.90;;;;;;4211402;28;19930;-57
2022/09/29 05:26:31;;;;;;;;;;;15.40;99.90;;;;;;4212045;28;19930;-58
2022/09/29 05:28:52;;;;;;;;;;;15.30;99.90;;;;;;4211374;28;20396;-57
2022/09/29 05:31:13;;;;;;;;;;;15.20;99.90;;;;;;4212142;28;19935;-57
2022/09/29 05:33:35;;;;;;;;;;;15.20;99.90;;;;;;4212085;28;20015;-57
2022/09/29 05:35:55;;;;;;;;;;;15.10;99.90;;;;;;4213063;28;19935;-57
2022/09/29 05:38:16;;;;;;;;;;;15.10;99.90;;;;;;4212947;28;19935;-57
2022/09/29 05:40:36;;;;;;;;;;;15.20;99.90;;;;;;4212297;28;19954;-57
2022/09/29 05:42:57;;;;;;;;;;;15.20;99.90;;;;;;4212510;28;20055;-58
2022/09/29 05:45:17;;;;;;;;;;;15.50;99.90;;;;;;4212762;28;20532;-57
2022/09/29 05:47:42;;;;;;;;;;;15.20;99.90;;;;;;4212206;28;19935;-57
2022/09/29 05:50:02;;;;;;;;;;;15.10;99.90;;;;;;4201241;28;19998;-57
2022/09/29 05:52:22;;;;;;;;;;;15.10;99.90;;;;;;4195732;28;19974;-57
2022/09/29 05:54:43;;;;;;;;;;;15.20;99.90;;;;;;4195450;28;19931;-57
2022/09/29 05:57:03;;;;;;;;;;;15.30;99.90;;;;;;4195793;28;19975;-57
2022/09/29 05:59:24;;;;;;;;;;;15.30;99.90;;;;;;4199186;28;20027;-56
2022/09/29 06:01:44;;;;;;;;;;;15.40;99.90;;;;;;4212089;28;19974;-57
2022/09/29 06:04:05;;;;;;;;;;;15.40;99.90;;;;;;4212041;28;20369;-57
2022/09/29 06:06:26;;;;;;;;;;;15.40;99.90;;;;;;4212441;28;20035;-57
2022/09/29 06:08:47;;;;;;;;;;;15.50;99.90;;;;;;4212053;28;20037;-57
2022/09/29 06:11:08;;;;;;;;;;;15.60;99.90;;;;;;4212352;28;19951;-57
2022/09/29 06:13:28;;;;;;;;;;;15.80;99.90;;;;;;4212424;28;19982;-56
2022/09/29 06:15:48;;;;;;;;;;;15.90;99.90;;;;;;4212723;28;20405;-57
2022/09/29 06:18:09;;;;;;;;;;;16.00;99.90;;;;;;4215353;28;20398;-57
2022/09/29 06:20:29;;;;;;;;;;;16.30;99.90;;;;;;4215280;28;20387;-57
2022/09/29 06:22:50;;;;;;;;;;;16.20;99.90;;;;;;4214916;28;20023;-56
2022/09/29 06:25:10;;;;;;;;;;;16.20;99.90;;;;;;4214542;28;20451;-57
2022/09/29 06:27:30;;;;;;;;;;;16.30;99.90;;;;;;4215186;28;19938;-57
2022/09/29 06:29:50;;;;;;;;;;;16.30;99.90;;;;;;4215001;28;20294;-57
2022/09/29 06:32:11;;;;;;;;;;;16.40;99.90;;;;;;4214967;28;19939;-57
2022/09/29 06:34:31;;;;;;;;;;;16.40;99.90;;;;;;4214900;28;19947;-57
2022/09/29 06:39:33;;;;;;;;;;;16.30;99.90;;;;;;4214517;28;19970;-57
2022/09/29 06:41:55;;;;;;;;;;;16.20;99.90;;;;;;4214832;28;19971;-57
2022/09/29 06:44:15;;;;;;;;;;;16.10;99.90;;;;;;4214991;28;19930;-57
2022/09/29 06:46:36;;;;;;;;;;;16.20;99.90;;;;;;4214698;28;19931;-57
2022/09/29 06:48:56;;;;;;;;;;;16.30;99.90;;;;;;4204087;28;20357;-57
2022/09/29 06:51:16;;;;;;;;;;;16.40;99.90;;;;;;4197796;28;20473;-57
2022/09/29 06:53:37;;;;;;;;;;;16.50;99.90;;;;;;4197926;28;19947;-57
2022/09/29 06:55:59;;;;;;;;;;;16.50;99.90;;;;;;4204551;28;20011;-57
2022/09/29 06:58:20;;;;;;;;;;;16.60;99.90;;;;;;4214555;28;20000;-57
2022/09/29 07:00:41;;;;;;;;;;;16.60;99.90;;;;;;4214102;28;20414;-57
2022/09/29 07:03:02;;;;;;;;;;;16.50;99.90;;;;;;4215005;28;19931;-57
2022/09/29 07:05:23;;;;;;;;;;;16.50;99.90;;;;;;4199570;28;19931;-57
2022/09/29 07:07:43;;;;;;;;;;;16.60;99.90;;;;;;4214194;28;20072;-57
2022/09/29 07:10:04;;;;;;;;;;;16.70;99.90;;;;;;4214298;28;19932;-57
2022/09/29 07:12:25;;;;;;;;;;;16.50;99.90;;;;;;4214053;28;19932;-57
2022/09/29 07:14:45;;;;;;;;;;;16.50;99.90;;;;;;4214270;28;19930;-57
2022/09/29 07:17:05;;;;;;;;;;;16.80;99.90;;;;;;4214545;28;20382;-57
2022/09/29 07:19:25;;;;;;;;;;;17.00;99.90;;;;;;4214361;28;19966;-57
2022/09/29 07:21:46;;;;;;;;;;;17.10;99.90;;;;;;4214197;28;20291;-57
2022/09/29 07:24:07;;;;;;;;;;;17.10;99.90;;;;;;4214397;28;20012;-57
2022/09/29 07:26:28;;;;;;;;;;;17.00;99.90;;;;;;4214109;28;19931;-56
2022/09/29 07:28:48;;;;;;;;;;;17.00;99.90;;;;;;4213393;28;19932;-57
2022/09/29 07:31:11;;;;;;;;;;;17.00;99.90;;;;;;4213914;28;19984;-57
2022/09/29 07:33:34;;;;;;;;;;;17.10;99.90;;;;;;4214088;28;19931;-57
2022/09/29 07:35:59;;;;;;;;;;;17.20;99.90;;;;;;4213700;28;19947;-58
2022/09/29 07:38:19;;;;;;;;;;;16.90;99.90;;;;;;4213515;28;19977;-57
2022/09/29 07:40:40;;;;;;;;;;;16.90;99.90;;;;;;4213865;28;20023;-56
2022/09/29 07:43:00;;;;;;;;;;;16.70;99.90;;;;;;4213860;28;19981;-57
2022/09/29 07:45:21;;;;;;;;;;;16.80;99.90;;;;;;4213502;28;19935;-57
2022/09/29 07:47:42;;;;;;;;;;;17.00;99.90;;;;;;4213510;28;19931;-57
2022/09/29 07:50:02;;;;;;;;;;;17.00;99.90;;;;;;4196471;28;19936;-57
2022/09/29 07:52:23;;;;;;;;;;;16.90;99.90;;;;;;4204966;28;19973;-57
2022/09/29 07:54:43;;;;;;;;;;;16.60;99.90;;;;;;4213929;28;19956;-57
2022/09/29 07:57:03;;;;;;;;;;;16.50;99.90;;;;;;4213562;28;19938;-57
2022/09/29 07:59:23;;;;;;;;;;;16.50;99.90;;;;;;4213131;28;19935;-57
2022/09/29 08:01:43;;;;;;;;;;;16.50;99.90;;;;;;4213652;28;20402;-58
2022/09/29 08:04:04;;;;;;;;;;;16.50;99.90;;;;;;4213516;28;19938;-57
2022/09/29 08:06:24;;;;;;;;;;;16.70;99.90;;;;;;4213377;28;19935;-57
2022/09/29 08:08:45;;;;;;;;;;;16.60;99.90;;;;;;4213768;28;20003;-56
2022/09/29 08:11:19;;;;;;;;;;;16.50;99.90;;;;;;4213197;28;19977;-57
2022/09/29 08:13:52;;;;;;;;;;;16.40;99.90;;;;;;4213535;28;20466;-56
2022/09/29 08:16:13;;;;;;;;;;;16.50;99.90;;;;;;4213354;28;19931;-57
2022/09/29 08:18:34;;;;;;;;;;;16.70;99.90;;;;;;4213226;28;19934;-57
2022/09/29 08:20:55;;;;;;;;;;;16.80;99.90;;;;;;4213109;28;19931;-57
2022/09/29 08:23:17;;;;;;;;;;;17.10;99.90;;;;;;4213197;28;19931;-56
2022/09/29 08:25:38;;;;;;;;;;;17.10;99.90;;;;;;4212802;28;20354;-57
2022/09/29 08:27:59;;;;;;;;;;;17.30;99.90;;;;;;4213543;28;19978;-57
2022/09/29 08:30:19;;;;;;;;;;;17.50;99.90;;;;;;4212995;28;20425;-57
2022/09/29 08:32:40;;;;;;;;;;;17.70;99.90;;;;;;4213181;28;19935;-58
2022/09/29 08:35:00;;;;;;;;;;;17.60;99.90;;;;;;4213540;28;19935;-56
2022/09/29 08:37:21;;;;;;;;;;;17.60;99.90;;;;;;4212855;28;19935;-57
2022/09/29 08:39:41;;;;;;;;;;;17.60;99.90;;;;;;4212707;28;19990;-56
2022/09/29 08:42:25;;;;;;;;;;;17.80;99.90;;;;;;4213146;28;20413;-57
2022/09/29 08:44:57;;;;;;;;;;;17.90;99.90;;;;;;4213172;28;19931;-57
2022/09/29 08:47:38;;;;;;;;;;;17.90;99.90;;;;;;4212847;28;20028;-57
2022/09/29 08:50:27;;;;;;;;;;;17.80;99.90;;;;;;4195754;28;19931;-57
2022/09/29 08:52:53;;;;;;;;;;;17.80;99.90;;;;;;4207120;28;19953;-57
2022/09/29 08:55:16;;;;;;;;;;;17.90;99.90;;;;;;4212833;28;19931;-57
2022/09/29 08:57:41;;;;;;;;;;;17.80;99.90;;;;;;4212850;28;19935;-58
2022/09/29 09:00:02;;;;;;;;;;;17.60;99.90;;;;;;4212808;28;19931;-57
2022/09/29 09:02:41;;;;;;;;;;;17.70;99.90;;;;;;4212710;28;19931;-57
2022/09/29 09:05:01;;;;;;;;;;;17.90;99.90;;;;;;4212696;28;20405;-57
2022/09/29 09:07:32;;;;;;;;;;;17.80;99.90;;;;;;4212441;28;19962;-57
2022/09/29 09:09:54;;;;;;;;;;;17.90;99.90;;;;;;4212937;28;19934;-57
2022/09/29 09:12:15;;;;;;;;;;;18.00;99.90;;;;;;4212689;28;20333;-57
2022/09/29 09:14:54;;;;;;;;;;;18.10;99.90;;;;;;4212399;28;20071;-56
2022/09/29 09:17:22;;;;;;;;;;;18.00;99.90;;;;;;4213075;28;19935;-56
2022/09/29 09:19:53;;;;;;;;;;;17.80;99.90;;;;;;4212195;28;20298;-57
2022/09/29 09:22:20;;;;;;;;;;;17.80;99.90;;;;;;4212791;28;19970;-58
2022/09/29 09:24:46;;;;;;;;;;;17.90;99.90;;;;;;4212925;28;20394;-56
2022/09/29 09:27:10;;;;;;;;;;;17.80;99.90;;;;;;4212440;28;20017;-57
2022/09/29 09:29:41;;;;;;;;;;;17.80;99.90;;;;;;4197255;28;19966;-56
2022/09/29 09:32:08;;;;;;;;;;;17.80;99.90;;;;;;4208673;28;19957;-57
2022/09/29 09:34:39;;;;;;;;;;;17.80;99.90;;;;;;4210644;28;19974;-57
2022/09/29 09:37:03;;;;;;;;;;;17.80;99.90;;;;;;4212212;28;19930;-57
2022/09/29 09:39:36;;;;;;;;;;;17.70;99.90;;;;;;4205705;28;20295;-57
2022/09/29 09:41:58;;;;;;;;;;;17.60;99.90;;;;;;4205293;28;19977;-56
2022/09/29 09:44:24;;;;;;;;;;;17.70;99.90;;;;;;4205850;28;20402;-57
2022/09/29 09:46:48;;;;;;;;;;;17.70;99.90;;;;;;4210917;28;19986;-57
2022/09/29 09:49:15;;;;;;;;;;;17.70;99.90;;;;;;4212231;28;19974;-57
2022/09/29 09:51:44;;;;;;;;;;;17.80;99.90;;;;;;4208504;28;19930;-57
2022/09/29 09:54:09;;;;;;;;;;;17.80;99.90;;;;;;4208684;28;19993;-57
2022/09/29 09:56:39;;;;;;;;;;;17.60;99.90;;;;;;4208851;28;19934;-57
2022/09/29 09:59:01;;;;;;;;;;;17.60;99.90;;;;;;4204907;28;19977;-57
2022/09/29 10:01:22;;;;;;;;;;;17.40;99.90;;;;;;4212774;28;20398;-57
2022/09/29 10:03:43;;;;;;;;;;;17.40;99.90;;;;;;4214285;28;19942;-57
2022/09/29 10:06:06;;;;;;;;;;;17.60;99.90;;;;;;4212716;28;19959;-57
2022/09/29 10:08:28;;;;;;;;;;;17.80;99.90;;;;;;4213313;28;19976;-57
2022/09/29 10:10:50;;;;;;;;;;;18.20;99.90;;;;;;4212521;28;20033;-57
2022/09/29 10:13:19;;;;;;;;;;;18.20;99.90;;;;;;4210699;28;19981;-57
2022/09/29 10:15:52;;;;;;;;;;;18.30;99.90;;;;;;4212913;28;20021;-57
2022/09/29 10:18:19;;;;;;;;;;;18.30;99.90;;;;;;4201775;28;20405;-57
2022/09/29 10:20:43;;;;;;;;;;;18.10;99.90;;;;;;4214785;28;19973;-57
2022/09/29 10:23:18;;;;;;;;;;;18.00;99.90;;;;;;4214278;28;19935;-57
2022/09/29 10:25:39;;;;;;;;;;;18.10;99.90;;;;;;4212558;28;19969;-57
2022/09/29 10:28:00;;;;;;;;;;;18.00;99.90;;;;;;4212887;28;19958;-57
2022/09/29 10:30:31;;;;;;;;;;;18.00;99.90;;;;;;4215070;28;19934;-57
2022/09/29 10:32:54;;;;;;;;;;;17.90;99.90;;;;;;4205946;28;19935;-57
2022/09/29 10:35:14;;;;;;;;;;;17.90;99.90;;;;;;4207770;28;19935;-59
2022/09/29 10:37:37;;;;;;;;;;;17.50;99.90;;;;;;4198539;28;19931;-59
2022/09/29 10:40:22;;;;;;;;;;;17.40;99.90;;;;;;4211994;28;20005;-59
2022/09/29 10:42:47;;;;;;;;;;;17.40;99.90;;;;;;4197747;28;20027;-58
2022/09/29 10:45:12;;;;;;;;;;;17.40;99.90;;;;;;4208025;28;19932;-58
2022/09/29 10:47:33;;;;;;;;;;;17.40;99.90;;;;;;4210504;28;20380;-58
2022/09/29 10:50:13;;;;;;;;;;;17.60;99.90;;;;;;4202096;28;19942;-58
2022/09/29 10:52:35;;;;;;;;;;;17.40;99.90;;;;;;4213936;28;20012;-58
2022/09/29 10:54:58;;;;;;;;;;;17.40;99.90;;;;;;4212287;28;19977;-58
2022/09/29 10:57:22;;;;;;;;;;;17.40;99.90;;;;;;4213099;28;20260;-58
2022/09/29 10:59:48;;;;;;;;;;;17.40;99.90;;;;;;4210695;28;19934;-58
2022/09/29 11:02:16;;;;;;;;;;;17.40;99.90;;;;;;4209629;28;19931;-59
2022/09/29 11:04:38;;;;;;;;;;;17.30;99.90;;;;;;4213196;28;20005;-59
2022/09/29 11:07:10;;;;;;;;;;;17.20;99.90;;;;;;4214484;28;19942;-59
2022/09/29 11:09:42;;;;;;;;;;;17.00;99.90;;;;;;4214281;28;19934;-59
2022/09/29 11:12:04;;;;;;;;;;;16.40;99.90;;;;;;4199084;28;20307;-59
2022/09/29 11:14:30;;;;;;;;;;;16.20;99.90;;;;;;4214188;28;19997;-59
2022/09/29 11:16:53;;;;;;;;;;;16.00;99.90;;;;;;4214370;28;19935;-59
2022/09/29 11:19:15;;;;;;;;;;;16.00;99.90;;;;;;4210535;28;20031;-59
2022/09/29 11:21:39;;;;;;;;;;;16.00;99.90;;;;;;4197261;28;19935;-58
2022/09/29 11:24:06;;;;;;;;;;;15.60;99.90;;;;;;4197503;28;20023;-59
2022/09/29 11:26:37;;;;;;;;;;;14.70;99.90;;;;;;4212515;28;20295;-59
2022/09/29 11:29:27;;;;;;;;;;;14.40;99.90;;;;;;4212876;28;20493;-59
2022/09/29 11:31:56;;;;;;;;;;;14.30;99.90;;;;;;4195319;28;19931;-59
2022/09/29 11:34:17;;;;;;;;;;;14.20;99.90;;;;;;4212549;28;19931;-59
2022/09/29 11:36:46;;;;;;;;;;;14.00;99.90;;;;;;4211750;28;19931;-59
2022/09/29 11:39:08;;;;;;;;;;;14.90;99.90;;;;;;4197169;28;19932;-58
2022/09/29 11:41:28;;;;;;;;;;;14.90;99.90;;;;;;4206936;28;19931;-61
2022/09/29 11:43:54;;;;;;;;;;;14.80;99.90;;;;;;4213796;28;19935;-60
2022/09/29 11:46:22;;;;;;;;;;;15.00;99.90;;;;;;4213977;28;20114;-61
2022/09/29 11:48:59;;;;;;;;;;;15.20;99.90;;;;;;4204776;28;19939;-61
2022/09/29 11:51:22;;;;;;;;;;;15.30;99.90;;;;;;4196770;28;19931;-60
2022/09/29 11:53:49;;;;;;;;;;;15.40;99.90;;;;;;4196988;28;19934;-61
2022/09/29 11:56:13;;;;;;;;;;;15.30;99.90;;;;;;4197155;28;20390;-61
2022/09/29 11:59:00;;;;;;;;;;;15.20;99.90;;;;;;4197012;28;19932;-61
2022/09/29 12:01:33;;;;;;;;;;;15.30;99.90;;;;;;4186146;28;20033;-60
2022/09/29 12:04:03;;;;;;;;;;;15.40;99.90;;;;;;4196629;28;19935;-61
2022/09/29 12:06:46;;;;;;;;;;;15.40;99.90;;;;;;4196620;28;19962;-60
2022/09/29 12:09:19;;;;;;;;;;;15.40;99.90;;;;;;4196765;28;19931;-60
2022/09/29 12:11:58;;;;;;;;;;;15.40;99.90;;;;;;4196501;28;19931;-61
2022/09/29 12:14:41;;;;;;;;;;;15.50;99.90;;;;;;4196360;28;19934;-61
2022/09/29 12:17:05;;;;;;;;;;;15.60;99.90;;;;;;4196822;28;19990;-61
2022/09/29 12:19:27;;;;;;;;;;;15.40;99.90;;;;;;4198393;28;20406;-60
2022/09/29 12:21:52;;;;;;;;;;;15.10;99.90;;;;;;4201548;28;20362;-60
2022/09/29 12:24:15;;;;;;;;;;;15.10;99.90;;;;;;4196248;28;19935;-60
2022/09/29 12:26:36;;;;;;;;;;;15.00;99.90;;;;;;4196564;28;19932;-60
2022/09/29 12:28:59;;;;;;;;;;;14.90;99.90;;;;;;4207247;28;19940;-61
2022/09/29 12:31:32;;;;;;;;;;;14.80;99.90;;;;;;4213609;28;19935;-61
2022/09/29 12:33:58;;;;;;;;;;;14.80;99.90;;;;;;4202356;28;19979;-61
2022/09/29 12:39:17;;;;;;;;;;;14.70;99.90;;;;;;4196637;28;20014;-61
2022/09/29 12:41:41;;;;;;;;;;;14.60;99.90;;;;;;4196991;28;20272;-60
2022/09/29 12:44:28;;;;;;;;;;;14.50;99.90;;;;;;4196711;28;19931;-61
2022/09/29 12:46:55;;;;;;;;;;;14.50;99.90;;;;;;4203141;28;19934;-60
2022/09/29 12:49:26;;;;;;;;;;;14.40;99.90;;;;;;4202854;28;19931;-61
2022/09/29 12:51:47;;;;;;;;;;;14.50;99.90;;;;;;4196880;28;20023;-62
2022/09/29 12:54:15;;;;;;;;;;;14.60;99.90;;;;;;4203278;28;20290;-63
2022/09/29 12:56:37;;;;;;;;;;;14.50;99.90;;;;;;4207988;28;19931;-63
2022/09/29 12:59:01;;;;;;;;;;;14.60;99.90;;;;;;4211418;28;20291;-62
2022/09/29 13:01:30;;;;;;;;;;;14.60;99.90;;;;;;4209787;28;20023;-61
2022/09/29 13:03:50;;;;;;;;;;;14.60;99.90;;;;;;4212763;28;19977;-61
2022/09/29 13:06:27;;;;;;;;;;;14.60;99.90;;;;;;4212693;28;19967;-63
2022/09/29 13:08:47;;;;;;;;;;;14.60;99.90;;;;;;4210530;28;19931;-62
2022/09/29 13:11:11;;;;;;;;;;;14.50;99.90;;;;;;4208954;28;20012;-62
2022/09/29 13:13:31;;;;;;;;;;;14.60;99.90;;;;;;4209338;28;20727;-61
2022/09/29 13:16:11;;;;;;;;;;;14.60;99.90;;;;;;4212269;28;19931;-61
2022/09/29 13:18:50;;;;;;;;;;;14.60;99.90;;;;;;4212195;28;19931;-61
2022/09/29 13:21:29;;;;;;;;;;;14.60;99.90;;;;;;4212015;28;20018;-62
2022/09/29 13:23:49;;;;;;;;;;;14.90;99.90;;;;;;4212818;28;19993;-61
2022/09/29 13:26:29;;;;;;;;;;;15.10;99.90;;;;;;4213457;28;19973;-62
2022/09/29 13:28:53;;;;;;;;;;;15.00;99.90;;;;;;4216378;28;19969;-62
2022/09/29 13:31:23;;;;;;;;;;;14.70;99.90;;;;;;4198929;28;20012;-61
2022/09/29 13:33:50;;;;;;;;;;;14.70;99.90;;;;;;4207623;28;20426;-61
2022/09/29 13:36:27;;;;;;;;;;;14.60;99.90;;;;;;4216713;28;20556;-61
2022/09/29 13:38:52;;;;;;;;;;;14.50;99.90;;;;;;4215861;28;19962;-61
2022/09/29 13:41:15;;;;;;;;;;;14.60;99.90;;;;;;4216352;28;19969;-61
2022/09/29 13:43:37;;;;;;;;;;;14.50;99.90;;;;;;4216379;28;19931;-60
2022/09/29 13:46:18;;;;;;;;;;;14.70;99.90;;;;;;4216468;28;20441;-61
2022/09/29 13:48:46;;;;;;;;;;;14.60;99.90;;;;;;4216277;28;19931;-61
2022/09/29 13:51:36;;;;;;;;;;;14.60;99.90;;;;;;4216196;28;20454;-60
2022/09/29 13:54:26;;;;;;;;;;;14.50;99.90;;;;;;4209514;28;19931;-60
2022/09/29 13:57:08;;;;;;;;;;;14.40;99.90;;;;;;4209723;28;19989;-61
2022/09/29 13:59:29;;;;;;;;;;;14.30;99.90;;;;;;4212854;28;20425;-62
2022/09/29 14:01:51;;;;;;;;;;;14.10;99.90;;;;;;4216069;28;19931;-61
2022/09/29 14:04:30;;;;;;;;;;;14.00;99.90;;;;;;4216383;28;19977;-61
2022/09/29 14:06:57;;;;;;;;;;;14.00;99.90;;;;;;4216040;28;19974;-61